createdAt,value
2022-12-27T00:01:20.338Z,-6.03
2022-12-27T00:06:25.138Z,-6.11
2022-12-27T00:11:30.125Z,-6.16
2022-12-27T00:16:34.340Z,-6.15
2022-12-27T00:21:37.028Z,-6.26
2022-12-27T00:26:41.009Z,-6.60
2022-12-27T00:31:43.697Z,-6.42
2022-12-27T00:36:46.483Z,-6.44
2022-12-27T00:41:49.423Z,-6.42
2022-12-27T00:46:51.972Z,-6.34
2022-12-27T00:51:54.510Z,-6.39
2022-12-27T00:56:57.024Z,-6.47
2022-12-27T01:01:59.772Z,-6.42
2022-12-27T01:07:02.476Z,-6.26
2022-12-27T01:12:05.406Z,-6.14
2022-12-27T01:17:08.010Z,-6.20
2022-12-27T01:22:10.673Z,-6.27
2022-12-27T01:27:13.215Z,-6.17
2022-12-27T01:32:15.777Z,-6.25
2022-12-27T01:37:18.338Z,-6.22
2022-12-27T01:42:39.413Z,-6.03
2022-12-27T01:48:12.337Z,-5.90
2022-12-27T01:53:29.938Z,-6.11
2022-12-27T01:58:38.743Z,-5.82
2022-12-27T02:03:48.539Z,-6.05
2022-12-27T02:09:09.355Z,-5.87
2022-12-27T02:14:13.933Z,-5.93
2022-12-27T02:19:42.688Z,-5.71
2022-12-27T02:25:12.677Z,-5.68
2022-12-27T02:30:15.804Z,-5.75
2022-12-27T02:35:40.507Z,-5.81
2022-12-27T02:41:06.152Z,-5.94
2022-12-27T02:46:35.303Z,-5.92
2022-12-27T02:52:14.638Z,-5.97
2022-12-27T02:57:22.886Z,-6.00
2022-12-27T03:03:15.595Z,-5.83
2022-12-27T03:08:31.225Z,-5.82
2022-12-27T03:14:16.017Z,-5.86
2022-12-27T03:19:40.951Z,-5.86
2022-12-27T03:25:01.945Z,-5.77
2022-12-27T03:30:27.371Z,-5.84
2022-12-27T03:35:34.686Z,-5.83
2022-12-27T03:41:01.898Z,-5.82
2022-12-27T03:46:35.208Z,-5.70
2022-12-27T03:51:43.301Z,-5.68
2022-12-27T03:56:46.108Z,-5.54
2022-12-27T04:01:48.699Z,-5.47
2022-12-27T04:06:51.452Z,-5.54
2022-12-27T04:12:12.755Z,-5.53
2022-12-27T04:17:33.834Z,-5.63
2022-12-27T04:22:56.510Z,-5.55
2022-12-27T04:28:17.683Z,-5.54
2022-12-27T04:33:38.938Z,-5.74
2022-12-27T04:38:41.460Z,-5.89
2022-12-27T04:44:02.535Z,-5.87
2022-12-27T04:49:23.879Z,-5.87
2022-12-27T04:54:45.192Z,-5.96
2022-12-27T05:00:06.364Z,-6.11
2022-12-27T05:05:10.081Z,-5.95
2022-12-27T05:10:31.211Z,-5.91
2022-12-27T05:15:33.765Z,-5.86
2022-12-27T05:20:36.347Z,-5.91
2022-12-27T05:25:43.405Z,-5.96
2022-12-27T05:30:46.036Z,-5.79
2022-12-27T05:35:48.659Z,-5.90
2022-12-27T05:40:51.189Z,-6.00
2022-12-27T05:45:54.648Z,-5.95
2022-12-27T05:50:57.293Z,-5.92
2022-12-27T05:56:00.913Z,-5.94
2022-12-27T06:01:09.378Z,-5.85
2022-12-27T06:06:12.250Z,-5.79
2022-12-27T06:11:17.975Z,-5.86
2022-12-27T06:16:22.578Z,-5.90
2022-12-27T06:21:25.236Z,-5.90
2022-12-27T06:26:29.800Z,-5.86
2022-12-27T06:31:32.509Z,-5.70
2022-12-27T06:36:35.067Z,-5.56
2022-12-27T06:41:37.758Z,-5.64
2022-12-27T06:46:40.299Z,-5.60
2022-12-27T06:51:42.892Z,-5.78
2022-12-27T06:56:45.462Z,-5.72
2022-12-27T07:01:48.390Z,-5.67
2022-12-27T07:06:51.076Z,-5.60
2022-12-27T07:11:54.156Z,-5.43
2022-12-27T07:16:56.799Z,-5.39
2022-12-27T07:21:59.368Z,-5.37
2022-12-27T07:27:02.422Z,-5.40
2022-12-27T07:32:05.358Z,-5.34
2022-12-27T07:37:07.963Z,-5.33
2022-12-27T07:42:10.567Z,-5.24
2022-12-27T07:47:13.463Z,-5.17
2022-12-27T07:52:16.178Z,-5.26
2022-12-27T07:57:18.880Z,-5.42
2022-12-27T08:02:21.523Z,-5.06
2022-12-27T08:07:25.692Z,-4.91
2022-12-27T08:12:28.264Z,-4.83
2022-12-27T08:17:30.878Z,-4.81
2022-12-27T08:22:33.470Z,-4.76
2022-12-27T08:27:36.165Z,-4.75
2022-12-27T08:32:38.696Z,-4.74
2022-12-27T08:37:41.305Z,-4.66
2022-12-27T08:42:43.834Z,-4.57
2022-12-27T08:47:46.372Z,-4.65
2022-12-27T08:52:51.267Z,-4.45
2022-12-27T08:58:01.372Z,-4.45
2022-12-27T09:03:04.581Z,-4.54
2022-12-27T09:08:07.936Z,-4.40
2022-12-27T09:13:10.524Z,-4.48
2022-12-27T09:18:13.649Z,-4.57
2022-12-27T09:23:16.200Z,-4.54
2022-12-27T09:28:20.212Z,-4.43
2022-12-27T09:33:22.753Z,-4.36
2022-12-27T09:38:25.416Z,-4.38
2022-12-27T09:43:42.945Z,-4.39
2022-12-27T09:48:47.112Z,-4.36
2022-12-27T09:54:10.302Z,-4.46
2022-12-27T09:59:28.221Z,-4.42
2022-12-27T10:05:09.989Z,-4.55
2022-12-27T10:10:26.446Z,-4.47
2022-12-27T10:15:56.146Z,-4.44
2022-12-27T10:21:21.928Z,-4.30
2022-12-27T10:26:24.948Z,-4.40
2022-12-27T10:31:28.564Z,-4.47
2022-12-27T10:36:32.405Z,-4.64
2022-12-27T10:42:12.586Z,-4.44
2022-12-27T10:47:16.681Z,-4.20
2022-12-27T10:52:24.491Z,-4.08
2022-12-27T10:57:35.631Z,-4.07
2022-12-27T11:03:03.424Z,-4.06
2022-12-27T11:08:21.083Z,-4.14
2022-12-27T11:13:23.693Z,-4.26
2022-12-27T11:18:26.704Z,-4.18
2022-12-27T11:23:36.181Z,-4.06
2022-12-27T11:28:53.072Z,-3.85
2022-12-27T11:33:59.337Z,-3.90
2022-12-27T11:39:02.362Z,-3.93
2022-12-27T11:44:26.874Z,-3.91
2022-12-27T11:49:36.104Z,-4.11
2022-12-27T11:54:45.231Z,-3.88
2022-12-27T11:59:47.784Z,-3.90
2022-12-27T12:05:21.710Z,-3.82
2022-12-27T12:10:55.639Z,-3.81
2022-12-27T12:16:17.874Z,-3.83
2022-12-27T12:21:24.051Z,-3.80
2022-12-27T12:26:31.650Z,-3.77
2022-12-27T12:32:00.572Z,-3.96
2022-12-27T12:37:38.130Z,-3.69
2022-12-27T12:43:06.898Z,-3.63
2022-12-27T12:48:39.981Z,-3.73
2022-12-27T12:54:00.985Z,-3.69
2022-12-27T12:59:17.534Z,-3.75
2022-12-27T13:04:43.423Z,-3.73
2022-12-27T13:09:54.853Z,-3.64
2022-12-27T13:15:20.532Z,-3.58
2022-12-27T13:20:32.177Z,-3.57
2022-12-27T13:26:01.307Z,-3.60
2022-12-27T13:31:21.559Z,-3.48
2022-12-27T13:36:42.600Z,-3.59
2022-12-27T13:42:22.856Z,-3.47
2022-12-27T13:47:50.712Z,-3.34
2022-12-27T13:53:24.256Z,-3.37
2022-12-27T13:58:27.569Z,-3.32
2022-12-27T14:03:30.155Z,-3.26
2022-12-27T14:08:57.066Z,-3.18
2022-12-27T14:14:02.054Z,-3.24
2022-12-27T14:19:58.823Z,-3.28
2022-12-27T14:25:13.184Z,-3.08
2022-12-27T14:30:21.744Z,-3.06
2022-12-27T14:35:27.314Z,-3.02
2022-12-27T14:40:34.464Z,-3.04
2022-12-27T14:46:05.404Z,-2.99
2022-12-27T14:57:03.653Z,-2.96
2022-12-27T15:02:25.318Z,-2.94
2022-12-27T15:07:55.503Z,-2.90
2022-12-27T15:13:30.247Z,-2.88
2022-12-27T15:18:45.377Z,-2.87
2022-12-27T15:24:01.679Z,-2.82
2022-12-27T15:29:35.276Z,-2.77
2022-12-27T15:34:42.401Z,-2.80
2022-12-27T15:39:47.319Z,-2.79
2022-12-27T15:45:16.092Z,-2.78
2022-12-27T15:50:30.733Z,-2.76
2022-12-27T15:56:04.322Z,-2.72
2022-12-27T16:01:23.650Z,-2.71
2022-12-27T16:06:34.214Z,-2.63
2022-12-27T16:11:58.485Z,-2.60
2022-12-27T16:17:24.267Z,-2.54
2022-12-27T16:22:36.515Z,-2.47
2022-12-27T16:27:39.184Z,-2.43
2022-12-27T16:32:48.576Z,-2.70
2022-12-27T16:37:54.990Z,-2.47
2022-12-27T16:43:17.681Z,-2.36
2022-12-27T16:48:51.972Z,-2.32
2022-12-27T16:54:31.344Z,-2.29
2022-12-27T16:59:57.310Z,-2.05
2022-12-27T17:05:00.999Z,-2.02
2022-12-27T17:10:27.196Z,-1.93
2022-12-27T17:15:31.663Z,-2.22
2022-12-27T17:20:34.814Z,-2.17
2022-12-27T17:25:48.764Z,-1.97
2022-12-27T17:30:54.577Z,-1.94
2022-12-27T17:36:21.834Z,-1.89
2022-12-27T17:41:54.453Z,-1.88
2022-12-27T17:47:37.213Z,-1.87
2022-12-27T17:52:58.436Z,-1.88
2022-12-27T17:58:03.953Z,-1.74
2022-12-27T18:03:09.848Z,-1.60
2022-12-27T18:08:28.291Z,-1.52
2022-12-27T18:13:38.036Z,-1.53
2022-12-27T18:18:40.801Z,-1.47
2022-12-27T18:23:43.858Z,-1.37
2022-12-27T18:28:48.182Z,-1.43
2022-12-27T18:33:52.963Z,-1.53
2022-12-27T18:39:18.287Z,-1.42
2022-12-27T18:44:39.245Z,-1.35
2022-12-27T18:49:42.386Z,-1.21
2022-12-27T18:54:45.108Z,-1.36
2022-12-27T19:00:00.972Z,-1.39
2022-12-27T19:05:33.049Z,-1.34
2022-12-27T19:10:36.046Z,-1.28
2022-12-27T19:15:43.372Z,-1.19
2022-12-27T19:20:54.150Z,-1.15
2022-12-27T19:26:26.044Z,-1.16
2022-12-27T19:31:29.234Z,-1.03
2022-12-27T19:36:44.108Z,-1.24
2022-12-27T19:41:48.417Z,-1.05
2022-12-27T19:46:51.037Z,-0.98
2022-12-27T19:51:56.283Z,-1.07
2022-12-27T19:56:58.880Z,-1.11
2022-12-27T20:02:01.624Z,-1.08
2022-12-27T20:07:04.488Z,-1.04
2022-12-27T20:12:09.595Z,-0.88
2022-12-27T20:17:12.115Z,-0.88
2022-12-27T20:22:14.651Z,-0.89
2022-12-27T20:27:20.226Z,-0.84
2022-12-27T20:32:22.993Z,-0.79
2022-12-27T20:37:25.646Z,-0.79
2022-12-27T20:42:28.294Z,-0.73
2022-12-27T20:47:32.367Z,-0.59
2022-12-27T20:52:38.599Z,-0.63
2022-12-27T20:57:42.569Z,-0.82
2022-12-27T21:02:45.644Z,-0.56
2022-12-27T21:07:48.346Z,-0.42
2022-12-27T21:12:50.888Z,-0.49
2022-12-27T21:17:53.430Z,-0.53
2022-12-27T21:22:56.044Z,-0.52
2022-12-27T21:27:58.675Z,-0.46
2022-12-27T21:33:01.345Z,-0.44
2022-12-27T21:38:03.897Z,-0.57
2022-12-27T21:43:06.456Z,-0.53
2022-12-27T21:48:08.994Z,-0.45
2022-12-27T21:53:11.990Z,-0.41
2022-12-27T21:58:14.630Z,-0.42
2022-12-27T22:03:17.442Z,-0.37
2022-12-27T22:08:20.406Z,-0.36
2022-12-27T22:13:23.394Z,-0.60
2022-12-27T22:18:26.374Z,-0.44
2022-12-27T22:23:38.487Z,-0.22
2022-12-27T22:28:41.973Z,-0.27
2022-12-27T22:33:44.920Z,-0.23
2022-12-27T22:38:50.355Z,-0.30
2022-12-27T22:43:56.217Z,-0.37
2022-12-27T22:49:01.173Z,-0.36
2022-12-27T22:54:05.265Z,-0.27
2022-12-27T22:59:09.697Z,-0.37
2022-12-27T23:04:13.858Z,-0.30
2022-12-27T23:09:16.508Z,-0.22
2022-12-27T23:14:19.074Z,-0.17
2022-12-27T23:19:24.377Z,-0.03
2022-12-27T23:24:26.926Z,0.02
2022-12-27T23:29:29.488Z,-0.26
2022-12-27T23:34:32.154Z,0.15
2022-12-27T23:39:34.740Z,0.07
2022-12-27T23:44:37.355Z,0.14
2022-12-27T23:49:39.940Z,0.05
2022-12-27T23:54:42.466Z,0.09
2022-12-27T23:59:45.023Z,-0.03
